sensor_id;sensor_type;location;lat;lon;timestamp;P1;durP1;ratioP1;P2;durP2;ratioP2
50010;SDS011;35899;50.352;19.390;2022-10-10T00:01:32;17.00;;;8.25;;
50010;SDS011;35899;50.352;19.390;2022-10-10T00:04:01;15.18;;;8.15;;
50010;SDS011;35899;50.352;19.390;2022-10-10T00:06:29;15.55;;;7.97;;
50010;SDS011;35899;50.352;19.390;2022-10-10T00:08:57;16.90;;;7.92;;
50010;SDS011;35899;50.352;19.390;2022-10-10T00:11:24;15.78;;;9.20;;
50010;SDS011;35899;50.352;19.390;2022-10-10T00:13:51;13.85;;;8.30;;
50010;SDS011;35899;50.352;19.390;2022-10-10T00:16:19;16.65;;;8.48;;
50010;SDS011;35899;50.352;19.390;2022-10-10T00:18:46;17.92;;;8.43;;
50010;SDS011;35899;50.352;19.390;2022-10-10T00:21:13;14.45;;;7.83;;
50010;SDS011;35899;50.352;19.390;2022-10-10T00:23:40;14.75;;;8.10;;
50010;SDS011;35899;50.352;19.390;2022-10-10T00:26:07;12.35;;;8.30;;
50010;SDS011;35899;50.352;19.390;2022-10-10T00:28:34;16.15;;;8.18;;
50010;SDS011;35899;50.352;19.390;2022-10-10T00:33:34;14.23;;;8.80;;
50010;SDS011;35899;50.352;19.390;2022-10-10T00:36:03;18.23;;;11.22;;
50010;SDS011;35899;50.352;19.390;2022-10-10T00:38:32;16.60;;;9.28;;
50010;SDS011;35899;50.352;19.390;2022-10-10T00:40:59;17.87;;;9.20;;
50010;SDS011;35899;50.352;19.390;2022-10-10T00:43:27;15.08;;;8.83;;
50010;SDS011;35899;50.352;19.390;2022-10-10T00:45:55;15.68;;;8.80;;
50010;SDS011;35899;50.352;19.390;2022-10-10T00:53:40;17.45;;;8.60;;
50010;SDS011;35899;50.352;19.390;2022-10-10T00:56:13;19.48;;;8.80;;
50010;SDS011;35899;50.352;19.390;2022-10-10T00:58:45;15.95;;;8.30;;
50010;SDS011;35899;50.352;19.390;2022-10-10T01:01:16;14.30;;;8.68;;
50010;SDS011;35899;50.352;19.390;2022-10-10T01:03:43;19.00;;;10.75;;
50010;SDS011;35899;50.352;19.390;2022-10-10T01:06:10;16.17;;;9.30;;
50010;SDS011;35899;50.352;19.390;2022-10-10T01:08:37;18.50;;;9.58;;
50010;SDS011;35899;50.352;19.390;2022-10-10T01:40:19;16.15;;;8.05;;
50010;SDS011;35899;50.352;19.390;2022-10-10T01:45:24;15.65;;;8.00;;
50010;SDS011;35899;50.352;19.390;2022-10-10T01:47:52;13.68;;;7.92;;
50010;SDS011;35899;50.352;19.390;2022-10-10T01:50:23;15.15;;;7.78;;
50010;SDS011;35899;50.352;19.390;2022-10-10T01:55:37;13.30;;;7.65;;
50010;SDS011;35899;50.352;19.390;2022-10-10T02:01:24;12.35;;;6.78;;
50010;SDS011;35899;50.352;19.390;2022-10-10T02:06:45;14.45;;;7.92;;
50010;SDS011;35899;50.352;19.390;2022-10-10T02:09:20;14.75;;;8.05;;
50010;SDS011;35899;50.352;19.390;2022-10-10T02:11:54;12.07;;;7.53;;
50010;SDS011;35899;50.352;19.390;2022-10-10T02:14:25;14.43;;;7.90;;
50010;SDS011;35899;50.352;19.390;2022-10-10T02:17:09;15.63;;;9.20;;
50010;SDS011;35899;50.352;19.390;2022-10-10T02:19:48;15.28;;;7.97;;
50010;SDS011;35899;50.352;19.390;2022-10-10T02:22:17;14.23;;;8.30;;
50010;SDS011;35899;50.352;19.390;2022-10-10T02:24:46;17.17;;;8.28;;
50010;SDS011;35899;50.352;19.390;2022-10-10T02:27:20;14.73;;;8.33;;
50010;SDS011;35899;50.352;19.390;2022-10-10T02:29:46;15.93;;;8.65;;
50010;SDS011;35899;50.352;19.390;2022-10-10T02:35:13;17.98;;;8.90;;
50010;SDS011;35899;50.352;19.390;2022-10-10T02:37:46;15.88;;;9.05;;
50010;SDS011;35899;50.352;19.390;2022-10-10T02:40:16;17.30;;;9.35;;
50010;SDS011;35899;50.352;19.390;2022-10-10T02:42:47;15.45;;;9.33;;
50010;SDS011;35899;50.352;19.390;2022-10-10T02:45:16;14.78;;;9.03;;
50010;SDS011;35899;50.352;19.390;2022-10-10T02:47:45;15.75;;;9.03;;
50010;SDS011;35899;50.352;19.390;2022-10-10T02:50:12;17.95;;;9.38;;
50010;SDS011;35899;50.352;19.390;2022-10-10T02:52:39;13.83;;;7.70;;
50010;SDS011;35899;50.352;19.390;2022-10-10T02:55:06;15.65;;;8.20;;
50010;SDS011;35899;50.352;19.390;2022-10-10T02:57:34;18.05;;;8.38;;
50010;SDS011;35899;50.352;19.390;2022-10-10T03:00:01;12.93;;;8.13;;
50010;SDS011;35899;50.352;19.390;2022-10-10T03:02:30;18.55;;;9.15;;
50010;SDS011;35899;50.352;19.390;2022-10-10T03:04:57;15.30;;;8.65;;
50010;SDS011;35899;50.352;19.390;2022-10-10T03:07:24;13.43;;;8.30;;
50010;SDS011;35899;50.352;19.390;2022-10-10T03:09:51;15.00;;;8.13;;
50010;SDS011;35899;50.352;19.390;2022-10-10T03:12:18;14.83;;;8.48;;
50010;SDS011;35899;50.352;19.390;2022-10-10T03:14:45;16.40;;;8.43;;
50010;SDS011;35899;50.352;19.390;2022-10-10T03:17:13;13.53;;;8.00;;
50010;SDS011;35899;50.352;19.390;2022-10-10T03:19:40;14.35;;;8.03;;
50010;SDS011;35899;50.352;19.390;2022-10-10T03:22:07;12.88;;;7.67;;
50010;SDS011;35899;50.352;19.390;2022-10-10T03:24:34;15.60;;;8.05;;
50010;SDS011;35899;50.352;19.390;2022-10-10T03:27:01;15.70;;;8.50;;
50010;SDS011;35899;50.352;19.390;2022-10-10T03:29:28;13.65;;;8.10;;
50010;SDS011;35899;50.352;19.390;2022-10-10T03:31:55;12.40;;;7.75;;
50010;SDS011;35899;50.352;19.390;2022-10-10T03:34:23;17.30;;;8.30;;
50010;SDS011;35899;50.352;19.390;2022-10-10T03:36:50;13.35;;;7.75;;
50010;SDS011;35899;50.352;19.390;2022-10-10T03:39:17;12.98;;;7.55;;
50010;SDS011;35899;50.352;19.390;2022-10-10T03:41:44;12.58;;;7.47;;
50010;SDS011;35899;50.352;19.390;2022-10-10T03:44:11;13.78;;;7.97;;
50010;SDS011;35899;50.352;19.390;2022-10-10T03:46:38;16.60;;;8.15;;
50010;SDS011;35899;50.352;19.390;2022-10-10T03:49:05;18.25;;;7.50;;
50010;SDS011;35899;50.352;19.390;2022-10-10T03:51:32;15.85;;;7.05;;
50010;SDS011;35899;50.352;19.390;2022-10-10T03:53:59;13.85;;;7.65;;
50010;SDS011;35899;50.352;19.390;2022-10-10T03:56:26;12.70;;;7.05;;
50010;SDS011;35899;50.352;19.390;2022-10-10T03:58:54;11.18;;;6.85;;
50010;SDS011;35899;50.352;19.390;2022-10-10T04:01:23;13.43;;;6.47;;
50010;SDS011;35899;50.352;19.390;2022-10-10T04:03:50;11.88;;;6.25;;
50010;SDS011;35899;50.352;19.390;2022-10-10T04:06:17;10.43;;;6.10;;
50010;SDS011;35899;50.352;19.390;2022-10-10T04:08:45;11.65;;;5.83;;
50010;SDS011;35899;50.352;19.390;2022-10-10T04:11:12;10.03;;;5.70;;
50010;SDS011;35899;50.352;19.390;2022-10-10T04:13:40;9.10;;;5.70;;
50010;SDS011;35899;50.352;19.390;2022-10-10T04:16:07;10.30;;;5.83;;
50010;SDS011;35899;50.352;19.390;2022-10-10T04:18:34;10.30;;;5.95;;
50010;SDS011;35899;50.352;19.390;2022-10-10T04:21:01;9.30;;;5.47;;
50010;SDS011;35899;50.352;19.390;2022-10-10T04:23:30;9.60;;;5.78;;
50010;SDS011;35899;50.352;19.390;2022-10-10T04:25:57;8.88;;;5.65;;
50010;SDS011;35899;50.352;19.390;2022-10-10T04:28:24;10.85;;;5.40;;
50010;SDS011;35899;50.352;19.390;2022-10-10T04:30:51;9.73;;;6.08;;
50010;SDS011;35899;50.352;19.390;2022-10-10T04:33:20;7.87;;;5.25;;
50010;SDS011;35899;50.352;19.390;2022-10-10T04:35:47;10.23;;;5.78;;
50010;SDS011;35899;50.352;19.390;2022-10-10T04:38:15;10.72;;;5.37;;
50010;SDS011;35899;50.352;19.390;2022-10-10T04:40:46;8.75;;;5.67;;
50010;SDS011;35899;50.352;19.390;2022-10-10T04:43:17;9.75;;;5.37;;
50010;SDS011;35899;50.352;19.390;2022-10-10T04:45:46;11.53;;;5.33;;
50010;SDS011;35899;50.352;19.390;2022-10-10T04:48:13;10.58;;;5.17;;
50010;SDS011;35899;50.352;19.390;2022-10-10T04:50:40;10.68;;;5.20;;
50010;SDS011;35899;50.352;19.390;2022-10-10T04:53:07;10.82;;;5.10;;
50010;SDS011;35899;50.352;19.390;2022-10-10T04:55:34;7.80;;;5.15;;
50010;SDS011;35899;50.352;19.390;2022-10-10T04:58:01;7.92;;;4.70;;
50010;SDS011;35899;50.352;19.390;2022-10-10T05:00:28;8.93;;;4.78;;
50010;SDS011;35899;50.352;19.390;2022-10-10T05:02:56;7.45;;;4.65;;
50010;SDS011;35899;50.352;19.390;2022-10-10T05:05:23;8.35;;;5.50;;
50010;SDS011;35899;50.352;19.390;2022-10-10T05:07:50;10.87;;;5.07;;
50010;SDS011;35899;50.352;19.390;2022-10-10T05:10:17;13.65;;;4.78;;
50010;SDS011;35899;50.352;19.390;2022-10-10T05:12:44;7.33;;;5.00;;
50010;SDS011;35899;50.352;19.390;2022-10-10T05:15:11;9.23;;;4.20;;
50010;SDS011;35899;50.352;19.390;2022-10-10T05:17:39;7.17;;;4.78;;
50010;SDS011;35899;50.352;19.390;2022-10-10T05:20:06;8.10;;;4.03;;
50010;SDS011;35899;50.352;19.390;2022-10-10T05:22:33;8.08;;;4.72;;
50010;SDS011;35899;50.352;19.390;2022-10-10T05:25:00;7.30;;;3.87;;
50010;SDS011;35899;50.352;19.390;2022-10-10T05:27:28;8.08;;;4.72;;
50010;SDS011;35899;50.352;19.390;2022-10-10T05:29:55;7.75;;;4.00;;
50010;SDS011;35899;50.352;19.390;2022-10-10T05:32:22;6.28;;;4.42;;
50010;SDS011;35899;50.352;19.390;2022-10-10T05:34:49;6.45;;;4.28;;
50010;SDS011;35899;50.352;19.390;2022-10-10T05:37:16;7.22;;;3.95;;
50010;SDS011;35899;50.352;19.390;2022-10-10T05:39:43;5.33;;;4.03;;
50010;SDS011;35899;50.352;19.390;2022-10-10T05:42:10;7.92;;;4.90;;
50010;SDS011;35899;50.352;19.390;2022-10-10T05:44:39;9.73;;;4.08;;
50010;SDS011;35899;50.352;19.390;2022-10-10T05:47:06;6.12;;;3.52;;
50010;SDS011;35899;50.352;19.390;2022-10-10T05:49:33;7.10;;;4.20;;
50010;SDS011;35899;50.352;19.390;2022-10-10T05:52:00;6.45;;;3.75;;
50010;SDS011;35899;50.352;19.390;2022-10-10T05:54:27;7.95;;;4.05;;
50010;SDS011;35899;50.352;19.390;2022-10-10T05:56:54;5.40;;;3.80;;
50010;SDS011;35899;50.352;19.390;2022-10-10T05:59:22;6.22;;;3.70;;
50010;SDS011;35899;50.352;19.390;2022-10-10T06:01:49;4.85;;;3.87;;
50010;SDS011;35899;50.352;19.390;2022-10-10T06:04:16;6.67;;;3.65;;
50010;SDS011;35899;50.352;19.390;2022-10-10T06:06:44;5.00;;;3.80;;
50010;SDS011;35899;50.352;19.390;2022-10-10T06:09:11;6.37;;;3.65;;
50010;SDS011;35899;50.352;19.390;2022-10-10T06:11:38;8.05;;;3.90;;
50010;SDS011;35899;50.352;19.390;2022-10-10T06:14:05;7.03;;;3.90;;
50010;SDS011;35899;50.352;19.390;2022-10-10T06:16:32;6.83;;;3.62;;
50010;SDS011;35899;50.352;19.390;2022-10-10T06:19:00;5.90;;;3.50;;
50010;SDS011;35899;50.352;19.390;2022-10-10T06:21:27;7.45;;;3.85;;
50010;SDS011;35899;50.352;19.390;2022-10-10T06:23:54;4.37;;;3.40;;
50010;SDS011;35899;50.352;19.390;2022-10-10T06:26:21;6.50;;;4.00;;
50010;SDS011;35899;50.352;19.390;2022-10-10T06:28:49;6.25;;;3.90;;
50010;SDS011;35899;50.352;19.390;2022-10-10T06:31:16;7.47;;;3.62;;
50010;SDS011;35899;50.352;19.390;2022-10-10T06:33:43;6.25;;;3.87;;
50010;SDS011;35899;50.352;19.390;2022-10-10T06:36:14;7.78;;;4.05;;
50010;SDS011;35899;50.352;19.390;2022-10-10T06:38:41;6.08;;;4.05;;
50010;SDS011;35899;50.352;19.390;2022-10-10T06:41:10;6.37;;;3.90;;
50010;SDS011;35899;50.352;19.390;2022-10-10T06:43:38;8.03;;;4.28;;
50010;SDS011;35899;50.352;19.390;2022-10-10T06:46:06;5.22;;;3.77;;
50010;SDS011;35899;50.352;19.390;2022-10-10T06:48:35;5.05;;;3.58;;
50010;SDS011;35899;50.352;19.390;2022-10-10T06:53:33;5.72;;;3.70;;
50010;SDS011;35899;50.352;19.390;2022-10-10T06:56:01;6.58;;;4.30;;
50010;SDS011;35899;50.352;19.390;2022-10-10T06:58:29;6.95;;;4.03;;
50010;SDS011;35899;50.352;19.390;2022-10-10T07:00:58;6.37;;;3.45;;
50010;SDS011;35899;50.352;19.390;2022-10-10T07:03:29;4.60;;;3.30;;
50010;SDS011;35899;50.352;19.390;2022-10-10T07:05:57;7.53;;;3.50;;
50010;SDS011;35899;50.352;19.390;2022-10-10T07:08:26;7.75;;;4.30;;
50010;SDS011;35899;50.352;19.390;2022-10-10T07:10:54;7.45;;;3.58;;
50010;SDS011;35899;50.352;19.390;2022-10-10T07:13:22;6.42;;;3.37;;
50010;SDS011;35899;50.352;19.390;2022-10-10T07:15:49;3.92;;;2.90;;
50010;SDS011;35899;50.352;19.390;2022-10-10T07:18:16;4.53;;;2.90;;
50010;SDS011;35899;50.352;19.390;2022-10-10T07:20:44;5.65;;;3.10;;
50010;SDS011;35899;50.352;19.390;2022-10-10T07:23:12;6.45;;;3.22;;
50010;SDS011;35899;50.352;19.390;2022-10-10T07:25:41;6.30;;;2.60;;
50010;SDS011;35899;50.352;19.390;2022-10-10T07:28:09;3.77;;;2.17;;
50010;SDS011;35899;50.352;19.390;2022-10-10T07:30:40;4.42;;;2.17;;
50010;SDS011;35899;50.352;19.390;2022-10-10T07:33:09;6.10;;;2.37;;
50010;SDS011;35899;50.352;19.390;2022-10-10T07:35:40;3.98;;;2.05;;
50010;SDS011;35899;50.352;19.390;2022-10-10T07:38:09;4.37;;;1.98;;
50010;SDS011;35899;50.352;19.390;2022-10-10T07:40:38;5.22;;;2.22;;
50010;SDS011;35899;50.352;19.390;2022-10-10T07:43:07;4.67;;;1.92;;
50010;SDS011;35899;50.352;19.390;2022-10-10T07:45:34;3.67;;;2.00;;
50010;SDS011;35899;50.352;19.390;2022-10-10T07:48:02;4.17;;;1.72;;
50010;SDS011;35899;50.352;19.390;2022-10-10T07:50:30;4.47;;;1.82;;
50010;SDS011;35899;50.352;19.390;2022-10-10T07:52:57;4.67;;;1.90;;
50010;SDS011;35899;50.352;19.390;2022-10-10T07:55:24;4.30;;;1.70;;
50010;SDS011;35899;50.352;19.390;2022-10-10T07:57:51;4.55;;;1.80;;
50010;SDS011;35899;50.352;19.390;2022-10-10T08:00:18;2.30;;;1.50;;
50010;SDS011;35899;50.352;19.390;2022-10-10T08:02:45;3.22;;;1.80;;
50010;SDS011;35899;50.352;19.390;2022-10-10T08:05:12;3.47;;;1.60;;
50010;SDS011;35899;50.352;19.390;2022-10-10T08:07:40;4.75;;;1.52;;
50010;SDS011;35899;50.352;19.390;2022-10-10T08:10:07;2.30;;;1.47;;
50010;SDS011;35899;50.352;19.390;2022-10-10T08:12:35;2.70;;;1.35;;
50010;SDS011;35899;50.352;19.390;2022-10-10T08:15:03;3.62;;;1.57;;
50010;SDS011;35899;50.352;19.390;2022-10-10T08:17:32;3.17;;;1.45;;
50010;SDS011;35899;50.352;19.390;2022-10-10T08:19:59;2.65;;;1.42;;
50010;SDS011;35899;50.352;19.390;2022-10-10T08:22:26;3.55;;;1.50;;
50010;SDS011;35899;50.352;19.390;2022-10-10T08:24:53;3.12;;;1.50;;
50010;SDS011;35899;50.352;19.390;2022-10-10T08:27:20;2.62;;;1.20;;
50010;SDS011;35899;50.352;19.390;2022-10-10T08:29:47;2.33;;;1.30;;
50010;SDS011;35899;50.352;19.390;2022-10-10T08:32:15;2.98;;;1.00;;
50010;SDS011;35899;50.352;19.390;2022-10-10T08:34:42;3.35;;;1.60;;
50010;SDS011;35899;50.352;19.390;2022-10-10T08:37:09;1.90;;;1.00;;
50010;SDS011;35899;50.352;19.390;2022-10-10T08:39:36;3.40;;;1.20;;
50010;SDS011;35899;50.352;19.390;2022-10-10T08:42:03;2.30;;;1.42;;
50010;SDS011;35899;50.352;19.390;2022-10-10T08:44:38;2.77;;;1.20;;
50010;SDS011;35899;50.352;19.390;2022-10-10T08:47:25;1.87;;;0.95;;
50010;SDS011;35899;50.352;19.390;2022-10-10T09:01:08;3.52;;;1.25;;
50010;SDS011;35899;50.352;19.390;2022-10-10T09:03:51;2.37;;;1.07;;
50010;SDS011;35899;50.352;19.390;2022-10-10T09:20:53;2.80;;;1.17;;
50010;SDS011;35899;50.352;19.390;2022-10-10T09:31:35;2.52;;;1.07;;
50010;SDS011;35899;50.352;19.390;2022-10-10T09:34:19;1.92;;;1.02;;
50010;SDS011;35899;50.352;19.390;2022-10-10T09:36:50;2.60;;;0.90;;
50010;SDS011;35899;50.352;19.390;2022-10-10T09:39:28;1.85;;;0.85;;
50010;SDS011;35899;50.352;19.390;2022-10-10T09:42:11;1.85;;;1.10;;
50010;SDS011;35899;50.352;19.390;2022-10-10T09:44:41;3.00;;;1.10;;
50010;SDS011;35899;50.352;19.390;2022-10-10T09:49:39;2.87;;;1.20;;
50010;SDS011;35899;50.352;19.390;2022-10-10T09:57:37;3.30;;;1.30;;
50010;SDS011;35899;50.352;19.390;2022-10-10T10:05:38;3.10;;;1.10;;
50010;SDS011;35899;50.352;19.390;2022-10-10T10:08:22;1.60;;;1.10;;
50010;SDS011;35899;50.352;19.390;2022-10-10T10:10:55;2.15;;;1.27;;
50010;SDS011;35899;50.352;19.390;2022-10-10T10:16:08;5.50;;;1.30;;
50010;SDS011;35899;50.352;19.390;2022-10-10T10:21:13;1.72;;;1.10;;
50010;SDS011;35899;50.352;19.390;2022-10-10T10:23:49;1.57;;;1.00;;
50010;SDS011;35899;50.352;19.390;2022-10-10T10:26:28;2.45;;;1.00;;
50010;SDS011;35899;50.352;19.390;2022-10-10T10:34:54;1.98;;;1.05;;
50010;SDS011;35899;50.352;19.390;2022-10-10T10:40:57;2.55;;;1.00;;
50010;SDS011;35899;50.352;19.390;2022-10-10T10:55:32;2.40;;;1.22;;
50010;SDS011;35899;50.352;19.390;2022-10-10T11:01:35;1.50;;;1.00;;
50010;SDS011;35899;50.352;19.390;2022-10-10T11:07:14;2.35;;;1.02;;
50010;SDS011;35899;50.352;19.390;2022-10-10T11:10:02;2.52;;;1.15;;
50010;SDS011;35899;50.352;19.390;2022-10-10T11:12:42;2.85;;;1.17;;
50010;SDS011;35899;50.352;19.390;2022-10-10T11:15:15;3.72;;;1.50;;
50010;SDS011;35899;50.352;19.390;2022-10-10T11:17:53;2.55;;;1.37;;
50010;SDS011;35899;50.352;19.390;2022-10-10T11:25:49;2.80;;;1.35;;
50010;SDS011;35899;50.352;19.390;2022-10-10T11:28:25;2.42;;;1.30;;
50010;SDS011;35899;50.352;19.390;2022-10-10T11:31:03;1.75;;;1.32;;
50010;SDS011;35899;50.352;19.390;2022-10-10T11:33:41;1.90;;;1.30;;
50010;SDS011;35899;50.352;19.390;2022-10-10T11:36:19;5.03;;;1.37;;
50010;SDS011;35899;50.352;19.390;2022-10-10T11:38:56;2.85;;;1.20;;
50010;SDS011;35899;50.352;19.390;2022-10-10T11:44:07;2.22;;;1.00;;
50010;SDS011;35899;50.352;19.390;2022-10-10T11:46:48;1.85;;;1.10;;
50010;SDS011;35899;50.352;19.390;2022-10-10T11:55:11;4.10;;;1.40;;
50010;SDS011;35899;50.352;19.390;2022-10-10T12:01:15;2.85;;;1.20;;
50010;SDS011;35899;50.352;19.390;2022-10-10T12:03:53;2.52;;;1.05;;
50010;SDS011;35899;50.352;19.390;2022-10-10T12:09:02;2.35;;;1.10;;
50010;SDS011;35899;50.352;19.390;2022-10-10T12:11:39;1.75;;;1.10;;
50010;SDS011;35899;50.352;19.390;2022-10-10T12:14:09;2.15;;;1.00;;
50010;SDS011;35899;50.352;19.390;2022-10-10T12:16:39;2.37;;;1.02;;
50010;SDS011;35899;50.352;19.390;2022-10-10T12:19:07;2.75;;;1.10;;
50010;SDS011;35899;50.352;19.390;2022-10-10T12:24:20;2.72;;;1.00;;
50010;SDS011;35899;50.352;19.390;2022-10-10T12:32:24;2.92;;;1.35;;
50010;SDS011;35899;50.352;19.390;2022-10-10T12:34:56;1.85;;;1.25;;
50010;SDS011;35899;50.352;19.390;2022-10-10T12:37:30;3.40;;;1.45;;
50010;SDS011;35899;50.352;19.390;2022-10-10T12:40:00;4.05;;;1.45;;
50010;SDS011;35899;50.352;19.390;2022-10-10T12:50:34;1.95;;;1.60;;
50010;SDS011;35899;50.352;19.390;2022-10-10T12:53:05;3.27;;;1.20;;
50010;SDS011;35899;50.352;19.390;2022-10-10T12:55:39;1.22;;;1.12;;
50010;SDS011;35899;50.352;19.390;2022-10-10T13:01:07;2.58;;;1.27;;
50010;SDS011;35899;50.352;19.390;2022-10-10T13:03:42;3.98;;;1.30;;
50010;SDS011;35899;50.352;19.390;2022-10-10T13:14:39;3.10;;;1.35;;
50010;SDS011;35899;50.352;19.390;2022-10-10T13:19:58;3.83;;;1.50;;
50010;SDS011;35899;50.352;19.390;2022-10-10T13:22:27;1.95;;;1.40;;
50010;SDS011;35899;50.352;19.390;2022-10-10T13:24:58;3.72;;;1.25;;
50010;SDS011;35899;50.352;19.390;2022-10-10T13:29:57;2.98;;;1.40;;
50010;SDS011;35899;50.352;19.390;2022-10-10T13:32:26;3.92;;;1.60;;
50010;SDS011;35899;50.352;19.390;2022-10-10T13:37:33;3.65;;;1.60;;
50010;SDS011;35899;50.352;19.390;2022-10-10T13:40:01;2.12;;;1.32;;
50010;SDS011;35899;50.352;19.390;2022-10-10T13:47:53;4.15;;;1.80;;
50010;SDS011;35899;50.352;19.390;2022-10-10T14:01:31;4.58;;;1.55;;
50010;SDS011;35899;50.352;19.390;2022-10-10T14:09:41;3.22;;;1.70;;
50010;SDS011;35899;50.352;19.390;2022-10-10T14:12:17;2.63;;;1.50;;
50010;SDS011;35899;50.352;19.390;2022-10-10T14:14:49;6.55;;;1.75;;
50010;SDS011;35899;50.352;19.390;2022-10-10T14:17:19;5.17;;;1.77;;
50010;SDS011;35899;50.352;19.390;2022-10-10T14:19:47;5.35;;;2.25;;
50010;SDS011;35899;50.352;19.390;2022-10-10T14:22:15;3.65;;;1.98;;
50010;SDS011;35899;50.352;19.390;2022-10-10T14:24:43;6.75;;;1.70;;
50010;SDS011;35899;50.352;19.390;2022-10-10T14:29:50;4.28;;;2.00;;
50010;SDS011;35899;50.352;19.390;2022-10-10T14:32:19;6.20;;;1.80;;
50010;SDS011;35899;50.352;19.390;2022-10-10T14:34:47;3.62;;;1.75;;
50010;SDS011;35899;50.352;19.390;2022-10-10T14:37:18;4.95;;;1.95;;
50010;SDS011;35899;50.352;19.390;2022-10-10T14:39:51;4.72;;;2.05;;
50010;SDS011;35899;50.352;19.390;2022-10-10T14:42:19;5.17;;;1.80;;
50010;SDS011;35899;50.352;19.390;2022-10-10T14:44:48;6.50;;;1.92;;
50010;SDS011;35899;50.352;19.390;2022-10-10T14:47:16;4.90;;;1.87;;
50010;SDS011;35899;50.352;19.390;2022-10-10T14:49:45;3.77;;;2.22;;
50010;SDS011;35899;50.352;19.390;2022-10-10T14:52:13;6.30;;;3.08;;
50010;SDS011;35899;50.352;19.390;2022-10-10T14:54:41;5.45;;;2.42;;
50010;SDS011;35899;50.352;19.390;2022-10-10T14:57:09;5.60;;;1.85;;
50010;SDS011;35899;50.352;19.390;2022-10-10T14:59:38;4.00;;;1.62;;
50010;SDS011;35899;50.352;19.390;2022-10-10T15:02:05;4.08;;;2.05;;
50010;SDS011;35899;50.352;19.390;2022-10-10T15:04:32;6.03;;;1.80;;
50010;SDS011;35899;50.352;19.390;2022-10-10T15:07:00;3.90;;;1.47;;
50010;SDS011;35899;50.352;19.390;2022-10-10T15:09:27;6.05;;;1.77;;
50010;SDS011;35899;50.352;19.390;2022-10-10T15:11:54;6.80;;;1.90;;
50010;SDS011;35899;50.352;19.390;2022-10-10T15:14:21;6.90;;;2.50;;
50010;SDS011;35899;50.352;19.390;2022-10-10T15:16:49;3.40;;;2.42;;
50010;SDS011;35899;50.352;19.390;2022-10-10T15:19:16;9.95;;;2.62;;
50010;SDS011;35899;50.352;19.390;2022-10-10T15:21:43;7.50;;;2.58;;
50010;SDS011;35899;50.352;19.390;2022-10-10T15:24:10;6.35;;;2.92;;
50010;SDS011;35899;50.352;19.390;2022-10-10T15:26:37;7.30;;;4.10;;
50010;SDS011;35899;50.352;19.390;2022-10-10T15:29:04;13.00;;;4.85;;
50010;SDS011;35899;50.352;19.390;2022-10-10T15:31:31;8.13;;;4.00;;
50010;SDS011;35899;50.352;19.390;2022-10-10T15:33:58;6.67;;;3.70;;
50010;SDS011;35899;50.352;19.390;2022-10-10T15:36:26;6.47;;;3.95;;
50010;SDS011;35899;50.352;19.390;2022-10-10T15:38:53;10.05;;;4.10;;
50010;SDS011;35899;50.352;19.390;2022-10-10T15:41:21;11.08;;;6.03;;
50010;SDS011;35899;50.352;19.390;2022-10-10T15:43:49;20.65;;;6.22;;
50010;SDS011;35899;50.352;19.390;2022-10-10T15:46:22;7.72;;;3.80;;
50010;SDS011;35899;50.352;19.390;2022-10-10T15:48:52;19.10;;;5.40;;
50010;SDS011;35899;50.352;19.390;2022-10-10T15:51:27;10.23;;;4.22;;
50010;SDS011;35899;50.352;19.390;2022-10-10T15:53:55;6.80;;;3.47;;
50010;SDS011;35899;50.352;19.390;2022-10-10T15:56:25;9.25;;;4.08;;
50010;SDS011;35899;50.352;19.390;2022-10-10T15:58:55;9.63;;;4.62;;
50010;SDS011;35899;50.352;19.390;2022-10-10T16:01:24;14.53;;;6.42;;
50010;SDS011;35899;50.352;19.390;2022-10-10T16:03:52;7.05;;;3.77;;
50010;SDS011;35899;50.352;19.390;2022-10-10T16:06:19;8.28;;;3.80;;
50010;SDS011;35899;50.352;19.390;2022-10-10T16:08:47;10.10;;;3.65;;
50010;SDS011;35899;50.352;19.390;2022-10-10T16:11:15;10.25;;;3.65;;
50010;SDS011;35899;50.352;19.390;2022-10-10T16:13:46;7.05;;;3.95;;
50010;SDS011;35899;50.352;19.390;2022-10-10T16:16:20;7.15;;;3.90;;
50010;SDS011;35899;50.352;19.390;2022-10-10T16:18:49;10.63;;;4.33;;
50010;SDS011;35899;50.352;19.390;2022-10-10T16:21:17;7.15;;;4.05;;
50010;SDS011;35899;50.352;19.390;2022-10-10T16:23:48;8.15;;;3.87;;
50010;SDS011;35899;50.352;19.390;2022-10-10T16:26:18;9.20;;;4.30;;
50010;SDS011;35899;50.352;19.390;2022-10-10T16:28:48;11.78;;;5.55;;
50010;SDS011;35899;50.352;19.390;2022-10-10T16:31:16;9.88;;;5.62;;
50010;SDS011;35899;50.352;19.390;2022-10-10T16:33:45;12.30;;;5.70;;
50010;SDS011;35899;50.352;19.390;2022-10-10T16:36:16;12.25;;;6.47;;
50010;SDS011;35899;50.352;19.390;2022-10-10T16:38:46;12.65;;;6.05;;
50010;SDS011;35899;50.352;19.390;2022-10-10T16:41:15;11.43;;;6.85;;
50010;SDS011;35899;50.352;19.390;2022-10-10T16:43:44;12.30;;;6.40;;
50010;SDS011;35899;50.352;19.390;2022-10-10T16:46:14;12.80;;;5.60;;
50010;SDS011;35899;50.352;19.390;2022-10-10T16:48:47;12.00;;;6.00;;
50010;SDS011;35899;50.352;19.390;2022-10-10T16:51:16;9.15;;;5.47;;
50010;SDS011;35899;50.352;19.390;2022-10-10T16:53:45;10.72;;;5.58;;
50010;SDS011;35899;50.352;19.390;2022-10-10T16:56:14;12.37;;;5.97;;
50010;SDS011;35899;50.352;19.390;2022-10-10T16:58:43;14.03;;;6.20;;
50010;SDS011;35899;50.352;19.390;2022-10-10T17:01:14;13.83;;;6.58;;
50010;SDS011;35899;50.352;19.390;2022-10-10T17:03:46;11.80;;;5.97;;
50010;SDS011;35899;50.352;19.390;2022-10-10T17:06:15;17.25;;;7.25;;
50010;SDS011;35899;50.352;19.390;2022-10-10T17:08:46;11.65;;;6.40;;
50010;SDS011;35899;50.352;19.390;2022-10-10T17:11:15;11.90;;;6.80;;
50010;SDS011;35899;50.352;19.390;2022-10-10T17:13:45;14.43;;;6.90;;
50010;SDS011;35899;50.352;19.390;2022-10-10T17:16:14;12.80;;;6.92;;
50010;SDS011;35899;50.352;19.390;2022-10-10T17:18:50;16.45;;;8.10;;
50010;SDS011;35899;50.352;19.390;2022-10-10T17:21:18;15.55;;;7.83;;
50010;SDS011;35899;50.352;19.390;2022-10-10T17:23:47;12.75;;;7.00;;
50010;SDS011;35899;50.352;19.390;2022-10-10T17:26:17;14.93;;;8.10;;
50010;SDS011;35899;50.352;19.390;2022-10-10T17:28:54;13.78;;;7.45;;
50010;SDS011;35899;50.352;19.390;2022-10-10T17:33:51;12.28;;;6.72;;
50010;SDS011;35899;50.352;19.390;2022-10-10T17:36:19;12.68;;;7.75;;
50010;SDS011;35899;50.352;19.390;2022-10-10T17:38:52;14.07;;;8.00;;
50010;SDS011;35899;50.352;19.390;2022-10-10T17:41:25;16.27;;;7.53;;
50010;SDS011;35899;50.352;19.390;2022-10-10T17:43:52;12.85;;;7.80;;
50010;SDS011;35899;50.352;19.390;2022-10-10T17:46:20;18.30;;;7.83;;
50010;SDS011;35899;50.352;19.390;2022-10-10T17:48:50;13.03;;;7.22;;
50010;SDS011;35899;50.352;19.390;2022-10-10T17:51:18;13.30;;;6.72;;
50010;SDS011;35899;50.352;19.390;2022-10-10T17:53:49;13.45;;;6.60;;
50010;SDS011;35899;50.352;19.390;2022-10-10T17:56:18;14.68;;;7.50;;
50010;SDS011;35899;50.352;19.390;2022-10-10T17:58:47;11.90;;;6.72;;
50010;SDS011;35899;50.352;19.390;2022-10-10T18:01:15;17.45;;;7.58;;
50010;SDS011;35899;50.352;19.390;2022-10-10T18:03:44;12.00;;;6.83;;
50010;SDS011;35899;50.352;19.390;2022-10-10T18:06:12;12.45;;;6.58;;
50010;SDS011;35899;50.352;19.390;2022-10-10T18:08:42;13.98;;;7.60;;
50010;SDS011;35899;50.352;19.390;2022-10-10T18:11:12;15.05;;;7.60;;
50010;SDS011;35899;50.352;19.390;2022-10-10T18:13:42;14.90;;;7.70;;
50010;SDS011;35899;50.352;19.390;2022-10-10T18:16:11;14.40;;;7.65;;
50010;SDS011;35899;50.352;19.390;2022-10-10T18:18:43;13.83;;;7.78;;